Time;durP1;ratioP1;P1;durP2;ratioP2;P2;SDS_P1;SDS_P2;PMS_P1;PMS_P2;Temp;Humidity;BMP_temperature;BMP_pressure;BME280_temperature;BME280_humidity;BME280_pressure;Samples;Min_cycle;Max_cycle;Signal;HPM_P1;HPM_P2
2023/07/27 00:02:02;;;;;;;2.78;1.35;;;;;;;11.76;52.08;100939.56;4969402;28;20026;-68
2023/07/27 00:04:27;;;;;;;6.40;2.45;;;;;;;11.62;52.18;100934.94;4968217;28;20130;-68
2023/07/27 00:06:53;;;;;;;4.55;1.55;;;;;;;11.71;51.66;100931.06;4967601;28;20965;-69
2023/07/27 00:09:19;;;;;;;2.63;1.52;;;;;;;11.67;52.12;100939.97;4965780;28;20051;-69
2023/07/27 00:11:44;;;;;;;4.88;1.73;;;;;;;11.63;52.16;100927.94;4967141;28;20044;-70
2023/07/27 00:14:10;;;;;;;4.55;2.10;;;;;;;11.56;52.05;100931.75;4964824;28;20050;-69
2023/07/27 00:16:35;;;;;;;4.20;1.67;;;;;;;11.45;52.34;100924.34;4966282;28;20030;-70
2023/07/27 00:19:01;;;;;;;4.10;1.48;;;;;;;11.40;52.53;100929.78;4969836;28;20038;-70
2023/07/27 00:21:26;;;;;;;4.03;1.60;;;;;;;11.31;53.04;100927.56;4962583;28;21387;-70
2023/07/27 00:23:52;;;;;;;5.43;2.15;;;;;;;11.23;52.92;100921.78;4966996;28;20065;-67
2023/07/27 00:26:17;;;;;;;5.47;1.52;;;;;;;11.23;53.06;100920.00;4965238;28;20185;-67
2023/07/27 00:28:43;;;;;;;4.70;1.90;;;;;;;11.20;53.42;100916.69;4966387;28;20652;-67
2023/07/27 00:31:08;;;;;;;6.82;2.25;;;;;;;11.23;52.93;100919.16;4968179;28;20045;-68
2023/07/27 00:33:35;;;;;;;5.72;2.05;;;;;;;11.25;52.99;100909.50;4964927;28;20066;-68
2023/07/27 00:36:00;;;;;;;2.42;1.02;;;;;;;11.28;52.99;100911.97;4970450;28;20128;-68
2023/07/27 00:38:28;;;;;;;6.38;2.45;;;;;;;11.19;52.99;100907.97;4966172;28;20034;-69
2023/07/27 00:40:54;;;;;;;10.80;2.55;;;;;;;11.16;53.33;100904.66;4964692;28;20114;-69
2023/07/27 00:43:19;;;;;;;6.95;2.00;;;;;;;11.11;53.42;100904.00;4966750;28;20082;-69
2023/07/27 00:45:49;;;;;;;6.43;2.53;;;;;;;11.04;53.69;100908.63;4965496;28;20053;-69
2023/07/27 00:48:16;;;;;;;4.50;2.13;;;;;;;10.95;53.60;100902.00;4949031;28;20034;-70
2023/07/27 00:50:41;;;;;;;6.25;1.73;;;;;;;10.90;53.82;100901.34;4967878;28;20046;-69
2023/07/27 00:53:08;;;;;;;3.50;1.75;;;;;;;10.92;54.06;100904.72;4964036;28;20038;-69
2023/07/27 00:55:36;;;;;;;3.45;1.50;;;;;;;10.86;54.15;100897.16;4948290;28;20047;-66
2023/07/27 00:58:02;;;;;;;5.97;2.20;;;;;;;10.85;54.09;100898.06;4949496;28;20034;-67
2023/07/27 01:00:30;;;;;;;5.38;2.42;;;;;;;10.81;54.11;100893.84;4942350;28;20038;-66
2023/07/27 01:02:56;;;;;;;6.07;3.05;;;;;;;10.81;54.41;100886.88;4941707;28;20031;-66
2023/07/27 01:05:23;;;;;;;2.47;1.83;;;;;;;10.80;54.27;100889.53;4942009;28;20049;-67
2023/07/27 01:07:48;;;;;;;5.88;2.38;;;;;;;10.67;54.45;100880.47;4947735;28;20042;-66
2023/07/27 01:10:14;;;;;;;3.22;1.77;;;;;;;10.80;54.35;100869.47;4961180;28;20923;-66
2023/07/27 01:12:49;;;;;;;3.92;2.25;;;;;;;10.77;54.09;100873.94;4962827;28;20125;-67
2023/07/27 01:15:17;;;;;;;5.03;2.13;;;;;;;10.81;54.23;100865.06;4966367;28;20034;-69
2023/07/27 01:17:52;;;;;;;8.02;2.13;;;;;;;10.82;54.41;100866.81;4966483;28;20050;-69
2023/07/27 01:20:26;;;;;;;5.03;2.33;;;;;;;10.79;54.47;100861.66;4961558;28;20062;-71
2023/07/27 01:23:10;;;;;;;3.78;2.10;;;;;;;10.78;54.27;100860.81;4969103;28;20066;-71
2023/07/27 01:25:50;;;;;;;4.32;1.80;;;;;;;10.75;54.36;100860.09;4958942;28;20532;-72
2023/07/27 01:28:55;;;;;;;3.53;1.95;;;;;;;10.71;54.47;100848.09;4968918;28;20066;-78
2023/07/27 01:31:31;;;;;;;4.63;2.38;;;;;;;10.69;54.58;100847.28;4971262;28;20119;-78
2023/07/27 01:34:00;;;;;;;8.25;2.88;;;;;;;10.68;54.78;100840.34;4968222;28;20054;-69
2023/07/27 01:36:31;;;;;;;5.55;2.30;;;;;;;10.68;54.77;100832.50;4965924;28;20117;-69
2023/07/27 01:38:59;;;;;;;2.22;1.38;;;;;;;10.70;54.76;100839.38;4981733;28;20062;-70
2023/07/27 01:41:27;;;;;;;5.72;2.05;;;;;;;10.82;54.41;100835.44;4961551;28;20031;-70
2023/07/27 01:43:53;;;;;;;3.92;1.75;;;;;;;10.82;54.41;100830.22;4966561;28;20047;-70
2023/07/27 01:46:20;;;;;;;4.68;2.38;;;;;;;10.81;54.37;100826.72;4966934;28;20038;-70
2023/07/27 01:48:49;;;;;;;3.50;2.35;;;;;;;10.82;54.72;100819.75;4966645;28;20120;-70
2023/07/27 01:51:16;;;;;;;6.30;2.05;;;;;;;10.86;54.14;100826.56;4968687;28;20058;-71
2023/07/27 01:53:43;;;;;;;2.78;1.77;;;;;;;10.87;54.26;100830.88;4969844;28;20041;-70
2023/07/27 01:56:11;;;;;;;4.00;2.33;;;;;;;10.84;54.30;100825.78;4952783;28;20038;-70
2023/07/27 01:58:37;;;;;;;4.32;1.65;;;;;;;10.87;54.06;100827.41;4959660;28;21116;-69
2023/07/27 02:01:04;;;;;;;5.53;3.05;;;;;;;10.83;54.01;100826.69;4950751;28;20065;-70
2023/07/27 02:03:30;;;;;;;7.00;2.28;;;;;;;10.85;53.81;100830.09;4950688;28;20034;-69
2023/07/27 02:06:00;;;;;;;3.75;2.00;;;;;;;10.91;54.00;100824.59;4967583;28;20050;-69
2023/07/27 02:08:26;;;;;;;3.00;1.70;;;;;;;10.92;53.74;100814.97;4950658;28;20058;-69
2023/07/27 02:10:55;;;;;;;8.00;2.78;;;;;;;10.94;53.95;100811.38;4963223;28;20078;-68
2023/07/27 02:13:27;;;;;;;4.72;2.47;;;;;;;11.00;53.67;100803.28;4952565;28;20058;-68
2023/07/27 02:16:21;;;;;;;4.57;2.40;;;;;;;10.95;53.41;100805.25;4985482;28;21020;-70
2023/07/27 02:18:49;;;;;;;4.25;1.90;;;;;;;10.92;53.78;100810.59;4984498;28;20414;-70
2023/07/27 02:21:16;;;;;;;7.07;2.38;;;;;;;10.96;53.58;100806.09;4971669;28;20053;-69
2023/07/27 02:23:41;;;;;;;4.38;2.40;;;;;;;10.90;53.61;100801.97;4961101;28;20038;-69
2023/07/27 02:26:07;;;;;;;6.43;2.45;;;;;;;10.89;53.54;100800.28;4949284;28;20023;-69
2023/07/27 02:28:33;;;;;;;4.75;2.75;;;;;;;10.95;53.76;100799.16;4928821;28;20039;-69
2023/07/27 02:30:59;;;;;;;8.93;2.90;;;;;;;10.89;53.52;100795.06;4947791;28;20031;-68
2023/07/27 02:33:25;;;;;;;5.55;2.35;;;;;;;10.88;53.59;100793.34;4947597;28;20094;-69
2023/07/27 02:35:52;;;;;;;4.68;2.38;;;;;;;10.90;53.52;100782.81;4968564;28;20191;-68
2023/07/27 02:38:19;;;;;;;6.50;2.20;;;;;;;10.92;53.55;100791.44;4965297;28;20128;-68
2023/07/27 02:40:45;;;;;;;7.10;2.85;;;;;;;11.00;53.22;100784.13;4968678;28;20133;-69
2023/07/27 02:43:10;;;;;;;6.07;2.47;;;;;;;10.98;53.28;100783.34;4956286;28;20033;-67
2023/07/27 02:45:36;;;;;;;4.40;2.40;;;;;;;11.03;53.07;100784.00;4961117;28;20038;-68
2023/07/27 02:48:02;;;;;;;4.18;2.33;;;;;;;10.98;53.10;100775.50;4987275;28;20493;-69
2023/07/27 02:50:27;;;;;;;9.10;2.58;;;;;;;10.95;52.69;100778.22;4949717;28;20043;-68
2023/07/27 02:53:00;;;;;;;10.88;3.30;;;;;;;10.81;53.00;100771.81;4935028;28;20038;-70
2023/07/27 02:55:26;;;;;;;4.60;2.70;;;;;;;10.79;53.56;100778.00;4946218;28;20061;-68
2023/07/27 02:57:57;;;;;;;7.90;2.78;;;;;;;10.78;53.56;100768.47;4947452;28;20035;-68
2023/07/27 03:00:23;;;;;;;6.47;3.10;;;;;;;10.78;53.65;100771.09;4947499;28;20098;-68
2023/07/27 03:02:50;;;;;;;5.68;2.85;;;;;;;10.72;53.50;100755.66;4947081;28;20034;-68
2023/07/27 03:05:15;;;;;;;6.38;3.20;;;;;;;10.71;53.91;100741.75;4947991;28;20054;-69
2023/07/27 03:07:41;;;;;;;5.30;2.78;;;;;;;10.70;53.96;100739.19;4946750;28;20035;-73
2023/07/27 03:10:07;;;;;;;5.50;3.05;;;;;;;10.74;54.09;100746.00;4963178;28;20038;-70
2023/07/27 03:12:33;;;;;;;7.97;3.67;;;;;;;10.76;53.96;100746.78;4960807;28;20031;-71
2023/07/27 03:14:58;;;;;;;8.70;3.47;;;;;;;10.70;53.78;100740.03;4959026;28;20053;-70
2023/07/27 03:17:24;;;;;;;6.95;3.72;;;;;;;10.74;53.87;100740.75;4966865;28;20030;-71
2023/07/27 03:19:50;;;;;;;7.03;3.35;;;;;;;10.81;53.93;100737.84;4944839;28;20078;-71
2023/07/27 03:22:15;;;;;;;7.60;2.80;;;;;;;10.93;53.89;100743.44;4949024;28;20046;-70
2023/07/27 03:24:41;;;;;;;5.78;3.03;;;;;;;10.94;53.68;100738.16;4930145;28;20046;-65
2023/07/27 03:27:06;;;;;;;5.43;3.50;;;;;;;10.92;53.64;100728.69;4951889;28;20035;-75
2023/07/27 03:29:32;;;;;;;11.05;3.25;;;;;;;10.85;53.74;100725.50;4948503;28;20051;-74
2023/07/27 03:31:57;;;;;;;9.93;3.88;;;;;;;10.78;53.70;100726.66;4952731;28;20141;-76
2023/07/27 03:34:22;;;;;;;6.90;3.78;;;;;;;10.82;54.09;100728.25;4956470;28;20513;-69
2023/07/27 03:36:48;;;;;;;9.38;4.00;;;;;;;10.82;54.19;100725.63;4966610;28;20041;-72
2023/07/27 03:39:14;;;;;;;10.23;3.88;;;;;;;10.93;54.07;100723.41;4965851;28;20050;-72
2023/07/27 03:41:40;;;;;;;7.03;4.40;;;;;;;10.95;53.97;100716.34;4966689;28;20477;-72
2023/07/27 03:44:05;;;;;;;8.35;4.55;;;;;;;10.94;54.04;100717.25;4963895;28;20065;-71
2023/07/27 03:46:31;;;;;;;9.60;4.03;;;;;;;10.97;54.06;100706.66;4942487;28;20034;-71
2023/07/27 03:48:57;;;;;;;8.63;3.83;;;;;;;11.01;53.75;100705.59;4981194;28;20468;-73
2023/07/27 03:51:22;;;;;;;8.93;4.13;;;;;;;10.98;53.75;100695.28;4938424;28;20989;-71
2023/07/27 03:53:47;;;;;;;9.48;4.05;;;;;;;11.00;53.76;100698.69;4953226;28;20041;-71
2023/07/27 03:56:13;;;;;;;6.35;3.67;;;;;;;11.05;53.84;100696.69;4969252;28;20073;-72
2023/07/27 03:58:38;;;;;;;10.85;4.35;;;;;;;11.13;53.79;100698.97;4963171;28;20294;-71
2023/07/27 04:01:04;;;;;;;7.88;3.20;;;;;;;11.16;53.59;100698.00;4955917;28;20030;-71
2023/07/27 04:03:30;;;;;;;6.57;3.90;;;;;;;11.18;53.61;100690.94;4964967;28;20125;-72
2023/07/27 04:05:55;;;;;;;5.72;3.42;;;;;;;11.19;53.34;100696.06;4965660;28;20121;-66
2023/07/27 04:08:21;;;;;;;7.25;4.43;;;;;;;11.24;53.52;100696.72;4963714;28;20030;-66
2023/07/27 04:10:46;;;;;;;9.52;3.88;;;;;;;11.23;53.37;100689.78;4965610;28;20107;-65
2023/07/27 04:13:12;;;;;;;4.70;3.25;;;;;;;11.24;53.15;100686.25;4967272;28;20587;-66
2023/07/27 04:15:38;;;;;;;8.82;3.05;;;;;;;11.29;53.21;100683.44;4950154;28;20584;-69
2023/07/27 04:18:04;;;;;;;6.43;3.28;;;;;;;11.34;53.27;100681.44;4949723;28;20057;-69
2023/07/27 04:20:30;;;;;;;7.50;3.22;;;;;;;11.37;52.93;100681.28;4949820;28;20042;-70
2023/07/27 04:22:56;;;;;;;5.88;3.95;;;;;;;11.38;53.03;100685.63;4947430;28;20536;-68
2023/07/27 04:25:21;;;;;;;11.15;3.45;;;;;;;11.44;52.76;100677.50;4962221;28;20047;-69
2023/07/27 04:27:49;;;;;;;3.75;2.42;;;;;;;11.48;52.73;100682.56;4945369;28;20559;-70
2023/07/27 04:30:15;;;;;;;5.70;2.50;;;;;;;11.54;52.62;100677.06;4945703;28;20046;-67
2023/07/27 04:32:40;;;;;;;3.85;2.50;;;;;;;11.57;52.25;100676.91;4949093;28;20117;-68
2023/07/27 04:35:06;;;;;;;7.53;3.45;;;;;;;11.64;52.01;100675.69;4943442;28;20034;-69
2023/07/27 04:37:32;;;;;;;5.50;2.83;;;;;;;11.64;51.78;100668.69;4950849;28;20065;-68
2023/07/27 04:39:58;;;;;;;7.65;2.88;;;;;;;11.66;51.73;100672.09;4949069;28;20696;-69
2023/07/27 04:42:23;;;;;;;4.72;2.40;;;;;;;11.70;52.01;100672.78;4960520;28;20039;-69
2023/07/27 04:44:49;;;;;;;5.90;2.55;;;;;;;11.75;51.97;100664.69;4957938;28;20058;-72
2023/07/27 04:47:15;;;;;;;9.85;2.58;;;;;;;11.79;51.63;100667.13;4969964;28;20102;-69
2023/07/27 04:49:40;;;;;;;6.72;3.40;;;;;;;11.78;51.44;100652.34;4955843;28;20556;-69
2023/07/27 04:52:06;;;;;;;5.57;2.65;;;;;;;11.75;51.77;100644.59;4925564;28;20576;-70
2023/07/27 04:54:31;;;;;;;6.07;3.08;;;;;;;11.80;51.06;100647.88;4955624;28;20073;-69
2023/07/27 04:56:57;;;;;;;4.82;3.28;;;;;;;11.80;51.29;100640.03;4951580;28;20037;-70
2023/07/27 04:59:23;;;;;;;17.73;2.75;;;;;;;11.99;50.96;100639.13;4961132;28;20049;-68
2023/07/27 05:01:48;;;;;;;7.30;3.08;;;;;;;11.99;50.76;100646.97;4947964;28;20121;-69
2023/07/27 05:04:13;;;;;;;6.00;3.25;;;;;;;11.97;51.31;100646.19;4946259;28;20073;-68
2023/07/27 05:06:39;;;;;;;8.60;2.47;;;;;;;12.23;50.69;100639.66;4944901;28;20725;-70
2023/07/27 05:09:05;;;;;;;5.80;3.03;;;;;;;12.25;50.46;100638.66;4950003;28;20127;-68
2023/07/27 05:11:31;;;;;;;5.30;3.15;;;;;;;12.18;50.82;100626.81;4948837;28;20066;-68
2023/07/27 05:13:57;;;;;;;6.10;2.67;;;;;;;12.24;51.06;100626.47;4950887;28;20487;-68
2023/07/27 05:16:22;;;;;;;6.80;4.30;;;;;;;12.17;50.50;100619.84;4967722;28;20708;-71
2023/07/27 05:18:50;;;;;;;9.73;3.47;;;;;;;12.20;50.58;100629.31;4952112;28;20420;-70
2023/07/27 05:21:15;;;;;;;4.13;2.55;;;;;;;12.39;50.75;100635.31;4948893;28;20038;-71
2023/07/27 05:23:41;;;;;;;6.85;3.28;;;;;;;12.52;50.54;100634.72;4969068;28;20626;-71
2023/07/27 05:26:06;;;;;;;10.77;3.58;;;;;;;12.76;50.59;100627.34;4979138;28;20030;-70
2023/07/27 05:28:32;;;;;;;7.03;3.30;;;;;;;12.94;49.49;100620.25;4969853;28;20030;-67
2023/07/27 05:30:57;;;;;;;5.07;3.00;;;;;;;13.02;49.53;100624.16;4975077;28;20690;-70
2023/07/27 05:33:24;;;;;;;6.97;3.00;;;;;;;13.10;49.17;100624.59;4974776;28;20039;-70
2023/07/27 05:35:50;;;;;;;7.03;2.90;;;;;;;12.88;49.13;100616.19;4972354;28;20062;-70
2023/07/27 05:38:17;;;;;;;7.25;3.45;;;;;;;12.81;49.47;100620.09;4976301;28;20034;-71
2023/07/27 05:40:43;;;;;;;7.93;2.95;;;;;;;12.95;49.39;100625.44;4975991;28;20038;-70
2023/07/27 05:43:08;;;;;;;7.53;2.95;;;;;;;13.09;48.76;100620.31;4978128;28;20108;-69
2023/07/27 05:45:36;;;;;;;8.30;2.75;;;;;;;13.20;48.94;100621.47;4960652;28;21030;-70
2023/07/27 05:48:04;;;;;;;6.07;3.40;;;;;;;13.31;48.37;100616.47;4958590;28;20382;-69
2023/07/27 05:50:30;;;;;;;5.57;3.75;;;;;;;13.34;48.40;100624.19;4959857;28;20043;-69
2023/07/27 05:52:55;;;;;;;7.25;3.15;;;;;;;13.21;48.24;100617.94;4973607;28;20039;-69
2023/07/27 05:55:21;;;;;;;4.90;3.30;;;;;;;13.10;48.77;100608.84;4972262;28;20042;-70
2023/07/27 05:57:46;;;;;;;8.63;3.90;;;;;;;13.13;49.04;100620.97;4977451;28;21036;-70
2023/07/27 06:00:12;;;;;;;4.85;2.90;;;;;;;13.20;49.07;100621.47;4978583;28;20149;-69
2023/07/27 06:02:38;;;;;;;6.70;3.63;;;;;;;13.03;48.97;100612.75;4978198;28;20097;-70
2023/07/27 06:05:04;;;;;;;13.02;3.60;;;;;;;13.01;49.46;100611.16;4962580;28;20549;-69
2023/07/27 06:07:30;;;;;;;4.25;3.13;;;;;;;13.03;49.70;100604.88;4959372;28;20050;-70
2023/07/27 06:09:55;;;;;;;4.90;3.20;;;;;;;13.08;49.16;100608.09;4953180;28;20054;-69
2023/07/27 06:12:21;;;;;;;5.57;3.67;;;;;;;13.15;49.69;100602.53;4956213;28;20043;-69
2023/07/27 06:14:46;;;;;;;5.55;2.80;;;;;;;13.21;49.76;100604.81;4967034;28;20053;-70
2023/07/27 06:17:11;;;;;;;7.65;4.70;;;;;;;13.14;49.71;100601.69;4976826;28;20030;-69
2023/07/27 06:19:37;;;;;;;5.72;3.35;;;;;;;13.24;49.88;100602.00;4967736;28;20038;-70
2023/07/27 06:22:02;;;;;;;5.95;4.15;;;;;;;13.24;49.66;100599.38;4974253;28;21785;-70
2023/07/27 06:24:30;;;;;;;5.82;2.85;;;;;;;13.38;50.34;100591.56;4970698;28;20039;-71
2023/07/27 06:26:55;;;;;;;8.63;4.45;;;;;;;13.41;49.76;100588.78;4959068;28;20034;-69
2023/07/27 06:29:21;;;;;;;5.55;3.03;;;;;;;13.36;50.12;100584.72;4973699;28;20045;-70
2023/07/27 06:31:46;;;;;;;5.40;3.42;;;;;;;13.57;49.98;100590.56;4970604;28;20509;-70
2023/07/27 06:34:12;;;;;;;6.28;3.53;;;;;;;13.56;50.04;100586.22;4974747;28;20110;-70
2023/07/27 06:36:37;;;;;;;5.30;3.15;;;;;;;13.44;49.97;100587.75;4967086;28;20113;-69
2023/07/27 06:39:03;;;;;;;5.95;3.20;;;;;;;13.36;50.66;100582.09;4971247;28;20057;-69
2023/07/27 06:41:28;;;;;;;6.35;3.63;;;;;;;13.32;50.47;100590.16;4973097;28;20034;-69
2023/07/27 06:43:54;;;;;;;8.10;4.28;;;;;;;13.38;50.88;100581.06;4971298;28;20057;-70
2023/07/27 06:46:20;;;;;;;5.70;3.17;;;;;;;13.28;51.18;100588.63;4962051;28;20124;-69
2023/07/27 06:48:46;;;;;;;7.85;3.50;;;;;;;13.29;51.01;100581.59;4972740;28;20038;-70
2023/07/27 06:51:12;;;;;;;4.88;3.00;;;;;;;13.32;51.13;100578.81;4976380;28;20034;-69
2023/07/27 06:53:38;;;;;;;8.88;3.83;;;;;;;13.44;50.89;100577.25;4968693;28;20611;-69
2023/07/27 06:56:04;;;;;;;7.03;3.17;;;;;;;13.32;51.13;100577.03;4953503;28;20034;-70
2023/07/27 06:58:30;;;;;;;6.13;3.85;;;;;;;13.50;50.61;100571.66;4954120;28;20043;-70
2023/07/27 07:00:55;;;;;;;8.20;3.65;;;;;;;13.59;51.35;100571.16;4972198;28;20042;-69
2023/07/27 07:03:21;;;;;;;5.93;3.38;;;;;;;13.81;50.80;100569.91;4974365;28;20034;-70
2023/07/27 07:05:47;;;;;;;8.07;3.65;;;;;;;13.62;51.07;100562.25;4954022;28;20035;-70
2023/07/27 07:08:12;;;;;;;8.52;3.15;;;;;;;13.60;51.10;100561.50;4953028;28;20499;-70
2023/07/27 07:10:38;;;;;;;5.57;4.13;;;;;;;13.66;51.07;100555.91;4967481;28;20042;-69
2023/07/27 07:13:03;;;;;;;5.15;3.03;;;;;;;13.65;51.30;100559.44;4986953;28;20139;-69
2023/07/27 07:15:29;;;;;;;6.53;3.67;;;;;;;13.55;51.63;100566.16;4972051;28;20081;-70
2023/07/27 07:17:55;;;;;;;5.47;3.08;;;;;;;13.57;51.89;100567.78;4968631;28;20069;-69
2023/07/27 07:20:20;;;;;;;6.63;2.97;;;;;;;13.51;52.01;100570.72;4955256;28;20122;-69
2023/07/27 07:22:46;;;;;;;7.22;3.30;;;;;;;13.31;52.63;100571.84;4952186;28;20026;-69
2023/07/27 07:25:11;;;;;;;4.82;3.33;;;;;;;13.28;52.95;100564.16;4952386;28;20544;-69
2023/07/27 07:27:37;;;;;;;4.22;2.83;;;;;;;12.89;54.11;100561.06;4961790;28;20034;-69
2023/07/27 07:30:06;;;;;;;7.28;3.25;;;;;;;12.98;54.32;100551.84;4953054;28;20141;-69
2023/07/27 07:32:33;;;;;;;4.75;2.30;;;;;;;13.08;54.73;100560.88;4952750;28;20035;-69
2023/07/27 07:34:59;;;;;;;7.20;2.70;;;;;;;13.07;54.50;100564.44;4964703;28;20184;-69
2023/07/27 07:37:28;;;;;;;5.60;3.20;;;;;;;13.17;54.27;100551.63;4964854;28;20568;-71
2023/07/27 07:39:56;;;;;;;7.13;2.88;;;;;;;13.27;54.25;100557.19;4957671;28;20073;-70
2023/07/27 07:42:21;;;;;;;5.47;3.15;;;;;;;13.33;54.18;100554.25;4950165;28;20023;-69
2023/07/27 07:44:47;;;;;;;4.47;2.58;;;;;;;13.29;54.00;100555.34;4947836;28;20417;-69
2023/07/27 07:47:12;;;;;;;5.72;3.20;;;;;;;13.42;53.88;100553.72;4949061;28;20502;-69
2023/07/27 07:49:38;;;;;;;4.70;2.65;;;;;;;13.63;53.77;100548.19;4946876;28;20678;-69
2023/07/27 07:52:04;;;;;;;7.50;2.97;;;;;;;13.79;53.24;100548.16;4948067;28;20506;-69
2023/07/27 07:54:30;;;;;;;6.10;3.08;;;;;;;14.06;52.84;100537.78;4958569;28;20057;-69
2023/07/27 07:56:56;;;;;;;5.88;2.78;;;;;;;14.17;53.08;100540.63;4963056;28;20040;-69
2023/07/27 07:59:22;;;;;;;7.22;4.85;;;;;;;14.54;52.22;100546.25;4962031;28;20050;-69
2023/07/27 08:01:48;;;;;;;4.57;2.85;;;;;;;14.93;52.35;100542.09;4950299;28;20034;-68
2023/07/27 08:04:13;;;;;;;3.30;2.08;;;;;;;14.70;51.56;100533.00;4951492;28;20314;-70
2023/07/27 08:06:39;;;;;;;5.97;2.30;;;;;;;14.66;51.61;100532.38;4980299;28;20642;-69
2023/07/27 08:09:06;;;;;;;12.40;3.20;;;;;;;14.47;52.37;100521.28;4966951;28;20397;-70
2023/07/27 08:11:32;;;;;;;7.53;2.83;;;;;;;14.67;51.13;100517.44;4967260;28;20046;-70
2023/07/27 08:14:01;;;;;;;3.63;2.38;;;;;;;14.80;50.39;100512.25;4966472;28;20068;-70
2023/07/27 08:16:27;;;;;;;3.80;2.80;;;;;;;15.08;50.99;100517.44;4967084;28;20074;-70
2023/07/27 08:18:53;;;;;;;3.83;2.42;;;;;;;15.07;50.03;100510.44;4967536;28;20379;-69
2023/07/27 08:21:18;;;;;;;4.93;2.90;;;;;;;14.62;50.78;100508.97;4966451;28;20057;-70
2023/07/27 08:23:44;;;;;;;4.03;2.88;;;;;;;14.90;50.61;100506.28;4968566;28;20497;-68
2023/07/27 08:26:12;;;;;;;7.30;2.80;;;;;;;14.87;51.24;100513.53;4967868;28;20581;-69
2023/07/27 08:28:38;;;;;;;6.28;2.30;;;;;;;15.09;51.25;100513.84;4969064;28;20028;-69
2023/07/27 08:31:04;;;;;;;3.67;2.28;;;;;;;15.23;50.57;100514.75;4963182;28;20031;-69
2023/07/27 08:33:31;;;;;;;7.10;2.90;;;;;;;15.08;50.10;100501.63;4957593;28;20030;-69
2023/07/27 08:35:57;;;;;;;4.93;2.72;;;;;;;15.24;50.63;100506.78;4978569;28;20065;-70
2023/07/27 08:38:24;;;;;;;6.53;2.80;;;;;;;15.32;49.99;100498.34;4969199;28;20496;-69
2023/07/27 08:40:57;;;;;;;5.45;2.75;;;;;;;15.38;50.93;100497.94;4965887;28;20562;-69
2023/07/27 08:43:24;;;;;;;3.35;2.50;;;;;;;15.20;50.32;100499.13;4964920;28;20626;-69
2023/07/27 08:45:49;;;;;;;5.90;2.45;;;;;;;15.04;51.27;100497.50;4962060;28;20138;-70
2023/07/27 08:48:16;;;;;;;4.95;2.80;;;;;;;15.05;51.14;100486.03;4959644;28;20532;-70
2023/07/27 08:50:44;;;;;;;4.03;3.03;;;;;;;15.20;51.17;100488.63;4947395;28;20038;-70
2023/07/27 08:53:10;;;;;;;6.88;3.05;;;;;;;15.05;51.58;100487.81;4947038;28;20689;-69
2023/07/27 08:55:37;;;;;;;4.78;3.15;;;;;;;14.75;52.06;100487.06;4942321;28;20414;-69
2023/07/27 08:58:03;;;;;;;6.40;3.13;;;;;;;14.76;52.44;100480.00;4947059;28;20030;-69
2023/07/27 09:00:29;;;;;;;4.28;2.85;;;;;;;14.73;53.01;100474.97;4944450;28;20552;-69
2023/07/27 09:02:54;;;;;;;5.35;3.33;;;;;;;14.85;52.58;100478.56;4946343;28;20102;-70
2023/07/27 09:05:20;;;;;;;4.35;2.88;;;;;;;14.75;52.58;100473.91;4958592;28;20042;-70
2023/07/27 09:07:51;;;;;;;5.50;2.88;;;;;;;14.82;52.70;100470.91;4956805;28;20117;-69
2023/07/27 09:10:17;;;;;;;5.22;3.45;;;;;;;14.79;52.50;100468.44;4951162;28;20038;-69
2023/07/27 09:12:42;;;;;;;7.32;3.05;;;;;;;14.89;52.12;100464.28;4947964;28;20561;-69
2023/07/27 09:15:15;;;;;;;4.47;2.97;;;;;;;14.50;53.24;100469.38;4946955;28;20136;-69
2023/07/27 09:17:41;;;;;;;11.13;6.07;;;;;;;14.13;54.58;100462.91;4950032;28;20046;-69
2023/07/27 09:20:12;;;;;;;5.72;3.53;;;;;;;14.56;53.63;100462.88;4959654;28;20162;-69
2023/07/27 09:22:37;;;;;;;5.53;3.08;;;;;;;14.41;53.90;100461.19;4946840;28;20034;-70
2023/07/27 09:25:05;;;;;;;4.78;3.30;;;;;;;14.27;54.20;100457.63;4948714;28;20055;-69
2023/07/27 09:27:41;;;;;;;9.07;4.05;;;;;;;14.32;53.70;100455.56;4943490;28;20046;-70
2023/07/27 09:30:07;;;;;;;4.68;3.45;;;;;;;14.39;54.50;100456.03;4948883;28;20046;-70
2023/07/27 09:32:36;;;;;;;5.03;3.20;;;;;;;14.30;54.39;100454.81;4946448;28;20378;-70
2023/07/27 09:35:03;;;;;;;5.00;3.05;;;;;;;14.54;54.06;100449.84;4948626;28;20043;-69
2023/07/27 09:37:29;;;;;;;4.72;3.05;;;;;;;14.55;53.99;100445.41;4949264;28;20026;-69
2023/07/27 09:40:15;;;;;;;3.95;3.20;;;;;;;14.59;53.79;100446.91;4945553;28;20043;-69
2023/07/27 09:42:42;;;;;;;7.65;3.85;;;;;;;14.63;53.79;100442.28;4962233;28;20023;-69
2023/07/27 09:45:08;;;;;;;6.93;3.85;;;;;;;14.51;53.61;100441.28;4944910;28;20538;-69
2023/07/27 09:47:34;;;;;;;5.07;3.33;;;;;;;14.50;53.74;100437.81;4947549;28;20034;-70
2023/07/27 09:50:01;;;;;;;4.82;3.47;;;;;;;14.55;53.86;100442.78;4951691;28;20042;-69
2023/07/27 09:52:27;;;;;;;6.35;3.58;;;;;;;14.50;53.67;100443.06;4964524;28;20584;-70
2023/07/27 09:54:57;;;;;;;5.40;3.40;;;;;;;14.58;53.53;100445.19;4955281;28;20047;-70
2023/07/27 09:57:24;;;;;;;3.85;2.83;;;;;;;14.64;53.87;100439.56;4959513;28;20559;-70
2023/07/27 09:59:51;;;;;;;6.72;4.32;;;;;;;14.30;54.38;100441.66;4953462;28;20540;-69
2023/07/27 10:02:17;;;;;;;4.75;2.97;;;;;;;14.67;53.99;100438.50;4962010;28;20030;-70
2023/07/27 10:04:46;;;;;;;5.00;3.22;;;;;;;14.73;53.47;100446.84;4953061;28;20043;-68
2023/07/27 10:07:12;;;;;;;6.15;3.95;;;;;;;14.71;53.44;100440.84;4941342;28;20075;-70
2023/07/27 10:09:38;;;;;;;7.88;4.50;;;;;;;14.89;53.04;100437.97;4946386;28;20067;-70
2023/07/27 10:12:04;;;;;;;7.25;5.05;;;;;;;14.85;52.80;100432.06;4950260;28;20133;-71
2023/07/27 10:14:31;;;;;;;5.18;4.32;;;;;;;14.63;53.07;100432.59;4932937;28;20050;-70
2023/07/27 10:16:57;;;;;;;6.68;4.55;;;;;;;14.51;53.75;100436.03;4948411;28;20023;-70
2023/07/27 10:19:22;;;;;;;8.82;4.70;;;;;;;14.64;53.61;100431.66;4943416;28;20184;-69
2023/07/27 10:21:48;;;;;;;8.95;5.32;;;;;;;14.56;53.76;100429.50;4948822;28;20035;-69
2023/07/27 10:24:21;;;;;;;5.72;5.20;;;;;;;14.56;53.48;100431.31;4949317;28;20035;-68
2023/07/27 10:26:50;;;;;;;7.90;5.97;;;;;;;14.50;53.22;100436.94;4946503;28;20086;-69
2023/07/27 10:29:20;;;;;;;7.55;4.85;;;;;;;14.65;53.08;100425.44;4935739;28;20046;-69
2023/07/27 10:32:01;;;;;;;6.38;5.07;;;;;;;14.75;52.69;100425.72;4969220;28;20042;-69
2023/07/27 10:34:28;;;;;;;8.33;5.03;;;;;;;14.95;52.36;100421.78;4951650;28;20054;-69
2023/07/27 10:36:59;;;;;;;6.13;5.35;;;;;;;15.31;52.94;100421.16;4947644;28;20599;-70
2023/07/27 10:39:34;;;;;;;7.20;4.97;;;;;;;15.86;51.61;100411.25;4931537;28;20046;-69
2023/07/27 10:42:10;;;;;;;8.25;5.13;;;;;;;15.82;50.91;100407.16;4972014;28;20073;-69
2023/07/27 10:44:47;;;;;;;5.28;3.95;;;;;;;15.56;51.52;100407.16;4949157;28;20050;-69
2023/07/27 10:47:21;;;;;;;5.93;4.63;;;;;;;15.61;51.51;100398.09;4984169;28;20034;-70
2023/07/27 10:49:48;;;;;;;6.88;3.88;;;;;;;15.28;51.31;100399.44;4966517;28;20048;-69
2023/07/27 10:52:25;;;;;;;4.30;3.85;;;;;;;15.26;51.82;100380.28;4968219;28;20038;-69
2023/07/27 10:54:52;;;;;;;7.38;4.43;;;;;;;15.51;51.29;100387.38;4963519;28;20073;-69
2023/07/27 10:57:19;;;;;;;4.47;3.88;;;;;;;15.55;51.36;100386.19;4966638;28;20623;-69
2023/07/27 10:59:47;;;;;;;6.80;4.40;;;;;;;15.52;51.34;100384.59;4966363;28;20038;-69
2023/07/27 11:02:21;;;;;;;3.63;3.33;;;;;;;15.50;51.42;100385.66;4967853;28;20583;-69
2023/07/27 11:04:57;;;;;;;6.50;3.67;;;;;;;15.44;51.25;100384.31;4967219;28;20042;-70
2023/07/27 11:07:40;;;;;;;4.72;3.42;;;;;;;15.50;51.45;100375.97;4967478;28;20045;-69
2023/07/27 11:10:14;;;;;;;5.72;3.80;;;;;;;15.31;52.19;100370.28;4965970;28;20077;-70
2023/07/27 11:12:51;;;;;;;6.63;3.90;;;;;;;15.40;51.46;100374.09;4966448;28;20134;-69
2023/07/27 11:15:25;;;;;;;5.45;3.78;;;;;;;15.52;51.91;100371.44;4949197;28;20046;-70
2023/07/27 11:17:56;;;;;;;3.92;3.38;;;;;;;15.49;51.07;100374.28;4950045;28;20038;-70
2023/07/27 11:20:24;;;;;;;3.38;2.88;;;;;;;15.41;51.44;100370.50;4967322;28;20056;-69
2023/07/27 11:22:52;;;;;;;5.25;3.50;;;;;;;14.83;53.09;100375.22;4965012;28;20038;-69
2023/07/27 11:25:18;;;;;;;6.55;3.28;;;;;;;14.79;53.42;100368.47;4965760;28;20046;-69